Otho, Iowa
Current Conditions -  °F | °C
As of 8:35 PM on Saturday 22 Nov 2014 (Local Time) from KFOD Reporting Station
Overcast Overcast  
Wind Chill: 52°   Ceiling: 600
Heat Index: 52°   Visibility: 10mi
Dew Point: 48°   Wind: 16mph
Humidity: 88%   Direction: 180°S
Pressure: 29.6"   Gusts: 24mph
Location:  42.42°N, 94.15°W
Report Text: KFOD 230235Z AUTO 18014G21KT 10SM OVC006 11/09 A2960 RMK AO1
Loading
Personal Weather Stations






























Interactive Weather Map New forecast layout! Learn more

10-Day Weather Forecast

Advertisements
Track Severe Weather on mobile